Time;durP1;ratioP1;P1;durP2;ratioP2;P2;SDS_P1;SDS_P2;PMS_P1;PMS_P2;Temp;Humidity;BMP_temperature;BMP_pressure;BME280_temperature;BME280_humidity;BME280_pressure;Samples;Min_cycle;Max_cycle;Signal;HPM_P1;HPM_P2
2022/09/02 00:01:54;;;;;;;2.50;1.80;;;22.20;72.50;;;;;;5111287;27;20210;-58
2022/09/02 00:04:24;;;;;;;3.70;1.73;;;22.20;72.50;;;;;;5111570;28;20234;-51
2022/09/02 00:06:53;;;;;;;2.70;1.67;;;22.20;72.60;;;;;;5123443;27;20332;-39
2022/09/02 00:09:23;;;;;;;2.25;1.65;;;22.10;72.50;;;;;;5107863;27;20623;-39
2022/09/02 00:11:53;;;;;;;2.88;1.88;;;22.10;72.50;;;;;;5100156;28;20199;-39
2022/09/02 00:14:30;;;;;;;2.80;1.58;;;22.10;72.50;;;;;;5111197;28;20213;-39
2022/09/02 00:16:59;;;;;;;2.30;1.70;;;22.10;72.70;;;;;;5112358;27;20509;-39
2022/09/02 00:19:28;;;;;;;3.05;1.52;;;22.10;72.50;;;;;;5093133;28;20573;-39
2022/09/02 00:21:59;;;;;;;2.80;2.08;;;22.10;72.50;;;;;;5121823;27;20189;-39
2022/09/02 00:24:31;;;;;;;2.95;1.92;;;22.00;72.70;;;;;;5129432;27;20698;-39
2022/09/02 00:27:01;;;;;;;3.90;1.90;;;22.10;72.60;;;;;;5110328;27;20198;-39
2022/09/02 00:29:33;;;;;;;3.00;2.10;;;22.10;72.60;;;;;;5113824;27;20723;-39
2022/09/02 00:32:00;;;;;;;5.43;2.90;;;22.00;72.50;;;;;;5114307;27;20399;-39
2022/09/02 00:34:30;;;;;;;5.47;2.08;;;22.00;72.60;;;;;;5131401;27;20289;-51
2022/09/02 00:36:58;;;;;;;4.22;2.35;;;22.00;72.50;;;;;;5092603;28;20251;-51
2022/09/02 00:39:25;;;;;;;5.63;2.67;;;22.00;72.60;;;;;;5110317;28;20293;-39
2022/09/02 00:41:57;;;;;;;5.18;2.40;;;22.00;72.60;;;;;;5123431;27;20713;-39
2022/09/02 00:44:24;;;;;;;4.60;2.05;;;22.00;73.40;;;;;;5116919;27;20225;-39
2022/09/02 00:46:51;;;;;;;4.60;1.80;;;21.90;72.60;;;;;;5126627;27;20197;-39
2022/09/02 00:49:30;;;;;;;4.70;1.90;;;21.90;72.60;;;;;;5122958;27;20210;-39
2022/09/02 00:52:11;;;;;;;2.78;1.75;;;21.90;72.60;;;;;;5121161;27;20254;-39
2022/09/02 00:54:48;;;;;;;4.57;1.85;;;21.90;72.80;;;;;;5129541;27;20201;-39
2022/09/02 00:57:22;;;;;;;5.47;2.00;;;21.90;72.70;;;;;;5101949;28;20228;-39
2022/09/02 01:00:05;;;;;;;3.30;1.83;;;21.90;72.60;;;;;;5114387;27;20237;-39
2022/09/02 01:02:38;;;;;;;2.33;1.70;;;21.90;72.90;;;;;;5115693;27;20212;-38
2022/09/02 01:05:09;;;;;;;2.78;2.03;;;21.80;72.60;;;;;;5124641;27;20225;-39
2022/09/02 01:07:43;;;;;;;4.15;2.20;;;21.80;72.60;;;;;;5110182;27;20210;-40
2022/09/02 01:10:18;;;;;;;2.13;1.88;;;21.80;72.80;;;;;;5117498;27;20213;-39
2022/09/02 01:12:53;;;;;;;2.92;1.80;;;21.70;72.60;;;;;;5118276;27;20718;-38
2022/09/02 01:15:23;;;;;;;2.17;1.83;;;21.70;72.70;;;;;;5112495;27;20794;-39
2022/09/02 01:17:52;;;;;;;4.35;2.28;;;21.70;72.70;;;;;;5101283;27;20711;-39
2022/09/02 01:20:26;;;;;;;2.63;1.90;;;21.70;72.70;;;;;;5121613;27;20669;-39
2022/09/02 01:22:56;;;;;;;4.97;2.33;;;21.70;72.80;;;;;;5110600;27;20243;-39
2022/09/02 01:25:26;;;;;;;3.22;1.75;;;21.70;72.80;;;;;;5110490;27;20230;-39
2022/09/02 01:28:03;;;;;;;2.85;2.00;;;21.60;72.80;;;;;;5109544;27;20218;-39
2022/09/02 01:30:32;;;;;;;5.07;2.40;;;21.60;72.80;;;;;;5118683;27;20691;-38
2022/09/02 01:32:59;;;;;;;4.47;2.28;;;21.60;72.90;;;;;;5108924;27;20195;-39
2022/09/02 01:35:29;;;;;;;3.72;2.28;;;21.60;72.70;;;;;;5123011;27;20275;-39
2022/09/02 01:38:01;;;;;;;4.18;2.30;;;21.60;72.90;;;;;;5116161;27;20214;-39
2022/09/02 01:40:30;;;;;;;3.60;1.95;;;21.60;72.90;;;;;;5121435;27;20210;-39
2022/09/02 01:43:04;;;;;;;3.60;2.28;;;21.50;72.90;;;;;;5092316;28;20254;-39
2022/09/02 01:45:35;;;;;;;8.15;2.20;;;21.50;73.00;;;;;;5103700;27;20234;-39
2022/09/02 01:48:04;;;;;;;3.65;1.70;;;21.50;73.00;;;;;;5119327;27;20200;-38
2022/09/02 01:50:36;;;;;;;7.50;2.08;;;21.40;73.00;;;;;;5120429;27;20626;-38
2022/09/02 01:53:10;;;;;;;7.38;3.08;;;21.40;73.00;;;;;;5105714;27;20580;-39
2022/09/02 01:55:42;;;;;;;5.20;2.40;;;21.30;72.90;;;;;;5129106;27;20221;-38
2022/09/02 01:58:12;;;;;;;5.22;2.78;;;21.30;73.10;;;;;;5125204;27;20578;-39
2022/09/02 02:00:41;;;;;;;8.18;2.50;;;21.30;73.10;;;;;;5123632;27;20202;-38
2022/09/02 02:03:09;;;;;;;4.80;2.35;;;21.20;73.10;;;;;;5108860;27;20209;-38
2022/09/02 02:05:41;;;;;;;6.10;2.63;;;21.20;73.20;;;;;;5108658;27;20589;-50
2022/09/02 02:08:09;;;;;;;7.40;2.40;;;21.20;73.20;;;;;;5111238;27;20692;-51
2022/09/02 02:10:41;;;;;;;3.40;2.10;;;21.10;73.30;;;;;;5102046;27;20234;-51
2022/09/02 02:13:10;;;;;;;4.95;2.10;;;21.10;73.20;;;;;;5124236;27;20200;-50
2022/09/02 02:15:43;;;;;;;4.50;2.30;;;21.10;73.40;;;;;;5128085;27;20271;-38
2022/09/02 02:18:11;;;;;;;3.25;1.95;;;21.00;73.30;;;;;;5112717;27;20206;-38
2022/09/02 02:20:40;;;;;;;3.92;2.40;;;21.00;73.30;;;;;;5127264;27;20201;-38
2022/09/02 02:23:13;;;;;;;4.85;2.00;;;20.90;73.30;;;;;;5127050;27;20792;-38
2022/09/02 02:25:40;;;;;;;2.53;2.00;;;20.90;73.30;;;;;;5111851;27;20594;-38
2022/09/02 02:28:10;;;;;;;4.57;2.28;;;20.90;73.40;;;;;;5114781;27;20669;-38
2022/09/02 02:30:40;;;;;;;3.45;1.95;;;20.80;73.40;;;;;;5112895;27;20255;-38
2022/09/02 02:33:07;;;;;;;2.83;1.90;;;20.80;73.50;;;;;;5108048;28;20760;-38
2022/09/02 02:35:34;;;;;;;4.68;2.45;;;20.80;74.00;;;;;;5122229;27;20201;-38
2022/09/02 02:38:04;;;;;;;6.13;2.22;;;20.70;73.50;;;;;;5121511;27;20302;-38
2022/09/02 02:40:37;;;;;;;4.70;2.30;;;20.70;73.70;;;;;;5114916;27;20262;-38
2022/09/02 02:43:04;;;;;;;4.88;1.92;;;20.70;73.60;;;;;;5109922;27;20224;-38
2022/09/02 02:45:34;;;;;;;3.17;1.80;;;20.70;73.50;;;;;;5122436;27;20228;-38
2022/09/02 02:48:04;;;;;;;3.03;1.83;;;20.60;73.50;;;;;;5110239;27;20751;-38
2022/09/02 02:50:32;;;;;;;5.68;2.33;;;20.60;73.70;;;;;;5107625;28;20198;-38
2022/09/02 02:53:02;;;;;;;2.17;2.00;;;20.60;73.80;;;;;;5107644;28;20198;-38
2022/09/02 02:55:31;;;;;;;3.63;2.10;;;20.60;73.80;;;;;;5100596;27;20205;-38
2022/09/02 02:58:00;;;;;;;4.63;2.08;;;20.50;73.80;;;;;;5122532;27;20222;-38
2022/09/02 03:00:29;;;;;;;3.50;2.30;;;20.50;73.90;;;;;;5118836;27;20202;-38
2022/09/02 03:03:02;;;;;;;2.85;2.10;;;20.50;74.00;;;;;;5123364;27;20193;-38
2022/09/02 03:05:34;;;;;;;5.43;1.85;;;20.50;74.00;;;;;;5110182;27;20235;-38
2022/09/02 03:08:04;;;;;;;4.05;2.17;;;20.50;74.00;;;;;;5116528;27;20210;-38
2022/09/02 03:10:32;;;;;;;4.82;2.10;;;20.50;74.10;;;;;;5109548;27;20635;-38
2022/09/02 03:13:00;;;;;;;6.53;2.08;;;20.50;74.20;;;;;;5106615;27;20244;-38
2022/09/02 03:15:28;;;;;;;4.40;2.30;;;20.40;74.10;;;;;;5115954;27;20194;-38
2022/09/02 03:18:00;;;;;;;2.92;2.22;;;20.40;74.20;;;;;;5115172;27;20214;-38
2022/09/02 03:20:34;;;;;;;5.80;2.22;;;20.40;74.10;;;;;;5128111;27;20589;-38
2022/09/02 03:23:02;;;;;;;3.75;2.10;;;20.40;74.30;;;;;;5117926;27;20696;-38
2022/09/02 03:25:31;;;;;;;4.82;1.98;;;20.30;74.20;;;;;;5100432;27;20699;-38
2022/09/02 03:28:03;;;;;;;3.13;1.88;;;20.30;74.30;;;;;;5091459;27;20206;-38
2022/09/02 03:30:38;;;;;;;2.83;2.03;;;20.30;74.40;;;;;;5089826;28;20569;-38
2022/09/02 03:33:11;;;;;;;3.55;2.00;;;20.30;74.60;;;;;;5113383;27;20605;-38
2022/09/02 03:35:41;;;;;;;2.38;1.60;;;20.30;74.60;;;;;;5103283;27;20616;-38
2022/09/02 03:38:11;;;;;;;2.50;1.75;;;20.30;74.60;;;;;;5098752;28;20680;-38
2022/09/02 03:40:40;;;;;;;4.68;2.13;;;20.30;74.70;;;;;;5106293;28;20197;-48
2022/09/02 03:43:08;;;;;;;2.85;1.90;;;20.30;74.70;;;;;;5108451;28;20604;-49
2022/09/02 03:45:40;;;;;;;4.07;1.90;;;20.30;74.80;;;;;;5131633;27;20360;-48
2022/09/02 03:48:12;;;;;;;3.38;1.95;;;20.30;74.80;;;;;;5106788;27;20197;-48
2022/09/02 03:50:45;;;;;;;2.50;1.88;;;20.30;74.90;;;;;;5090393;28;20198;-49
2022/09/02 03:53:15;;;;;;;2.75;1.80;;;20.30;75.00;;;;;;5112704;28;20216;-48
2022/09/02 03:55:48;;;;;;;2.42;1.88;;;20.30;74.90;;;;;;5105536;28;20201;-47
2022/09/02 03:58:20;;;;;;;3.15;2.20;;;20.30;75.00;;;;;;5115942;28;20392;-48
2022/09/02 04:00:53;;;;;;;2.55;1.65;;;20.30;74.90;;;;;;5092466;28;20202;-48
2022/09/02 04:03:20;;;;;;;3.15;1.85;;;20.30;75.00;;;;;;5107632;28;20225;-50
2022/09/02 04:05:50;;;;;;;4.28;2.30;;;20.30;75.10;;;;;;5120874;28;20245;-47
2022/09/02 04:08:22;;;;;;;4.72;2.20;;;20.30;75.10;;;;;;5096507;28;20243;-48
2022/09/02 04:10:52;;;;;;;4.07;2.05;;;20.30;75.30;;;;;;5107900;28;20229;-48
2022/09/02 04:13:19;;;;;;;2.13;1.92;;;20.30;75.30;;;;;;5116840;28;20217;-48
2022/09/02 04:15:49;;;;;;;3.33;2.13;;;20.30;75.30;;;;;;5107196;28;20198;-48
2022/09/02 04:18:17;;;;;;;4.10;1.73;;;20.40;75.30;;;;;;5090307;28;20209;-47
2022/09/02 04:20:45;;;;;;;4.28;2.20;;;20.40;75.40;;;;;;5115062;28;20579;-48
2022/09/02 04:23:12;;;;;;;4.78;1.98;;;20.40;75.50;;;;;;5098101;28;20684;-47
2022/09/02 04:25:45;;;;;;;3.50;2.17;;;20.40;75.50;;;;;;5115394;28;20285;-47
2022/09/02 04:28:14;;;;;;;2.08;1.50;;;20.40;75.60;;;;;;5118920;28;20736;-50
2022/09/02 04:30:45;;;;;;;3.50;1.90;;;20.40;75.70;;;;;;5106916;28;20195;-50
2022/09/02 04:33:15;;;;;;;2.17;1.98;;;20.40;75.60;;;;;;5108264;28;20209;-46
2022/09/02 04:35:45;;;;;;;9.07;2.22;;;20.40;75.70;;;;;;5116118;28;20223;-48
2022/09/02 04:38:12;;;;;;;2.58;2.20;;;20.40;75.80;;;;;;5108680;28;20237;-50
2022/09/02 04:40:42;;;;;;;4.18;2.30;;;20.40;75.80;;;;;;5114208;28;20225;-46
2022/09/02 04:43:12;;;;;;;4.85;1.98;;;20.40;75.90;;;;;;5108155;28;20664;-47
2022/09/02 04:45:42;;;;;;;4.50;2.38;;;20.40;75.90;;;;;;5105150;27;20711;-46
2022/09/02 04:48:12;;;;;;;6.65;2.65;;;20.40;76.00;;;;;;5127297;27;20198;-48
2022/09/02 04:50:44;;;;;;;8.43;2.38;;;20.40;76.00;;;;;;5113420;27;20198;-47
2022/09/02 04:53:15;;;;;;;6.57;2.13;;;20.40;76.20;;;;;;5110166;28;20198;-48
2022/09/02 04:55:46;;;;;;;4.60;2.25;;;20.40;76.20;;;;;;5119645;27;20707;-48
2022/09/02 04:58:15;;;;;;;6.93;2.50;;;20.40;76.10;;;;;;5115747;27;20277;-49
2022/09/02 05:00:42;;;;;;;7.43;3.05;;;20.40;76.20;;;;;;5101820;27;20228;-47
2022/09/02 05:03:10;;;;;;;16.52;2.88;;;20.40;76.20;;;;;;5101150;27;20244;-48
2022/09/02 05:05:40;;;;;;;12.75;3.20;;;20.40;76.30;;;;;;5112513;27;20688;-46
2022/09/02 05:08:07;;;;;;;7.63;3.60;;;20.40;76.40;;;;;;5117277;27;20229;-49
2022/09/02 05:10:35;;;;;;;9.75;2.78;;;20.40;76.40;;;;;;5117448;27;20225;-49
2022/09/02 05:13:02;;;;;;;7.72;2.50;;;20.40;76.30;;;;;;5103061;27;20695;-49
2022/09/02 05:15:32;;;;;;;4.63;2.70;;;20.40;76.30;;;;;;5118891;27;20197;-50
2022/09/02 05:18:02;;;;;;;5.90;2.72;;;20.50;76.60;;;;;;5095525;27;20306;-50
2022/09/02 05:20:32;;;;;;;4.55;2.03;;;20.50;76.70;;;;;;5117613;27;20197;-48
2022/09/02 05:23:00;;;;;;;4.25;2.10;;;20.50;76.70;;;;;;5111296;27;21558;-48
2022/09/02 05:25:28;;;;;;;7.90;2.53;;;20.50;76.70;;;;;;5109721;27;20218;-50
2022/09/02 05:27:55;;;;;;;12.13;3.30;;;20.50;76.80;;;;;;5100648;27;20310;-42
2022/09/02 05:30:22;;;;;;;5.13;2.40;;;20.50;77.00;;;;;;5113574;27;20199;-37
2022/09/02 05:32:52;;;;;;;10.82;2.72;;;20.50;77.40;;;;;;5108358;27;20202;-38
2022/09/02 05:35:20;;;;;;;9.55;3.22;;;20.50;77.60;;;;;;5115479;27;20202;-37
2022/09/02 05:37:49;;;;;;;12.65;3.03;;;20.50;77.90;;;;;;5112533;27;20755;-37
2022/09/02 05:40:19;;;;;;;15.23;3.50;;;20.50;78.10;;;;;;5097481;27;20300;-38
2022/09/02 05:42:48;;;;;;;7.57;3.13;;;20.50;78.30;;;;;;5110934;27;20214;-37
2022/09/02 05:45:22;;;;;;;9.82;3.00;;;20.40;78.30;;;;;;5115376;27;20238;-37
2022/09/02 05:47:54;;;;;;;6.60;2.70;;;20.40;78.50;;;;;;5093540;27;20210;-38
2022/09/02 05:50:21;;;;;;;4.20;2.60;;;20.40;78.40;;;;;;5127206;27;20604;-38
2022/09/02 05:52:50;;;;;;;8.45;2.65;;;20.40;78.50;;;;;;5108992;27;20226;-38
2022/09/02 05:55:20;;;;;;;13.20;3.08;;;20.40;78.60;;;;;;5107439;27;20254;-38
2022/09/02 05:57:47;;;;;;;11.52;3.20;;;20.40;78.90;;;;;;5122787;27;20243;-38
2022/09/02 06:00:17;;;;;;;7.32;2.92;;;20.40;78.80;;;;;;5109254;27;20376;-38
2022/09/02 06:02:46;;;;;;;8.45;3.08;;;20.30;78.70;;;;;;5119765;27;20592;-38
2022/09/02 06:05:17;;;;;;;13.38;3.28;;;20.30;78.80;;;;;;5117487;27;20234;-38
2022/09/02 06:07:44;;;;;;;7.55;2.90;;;20.30;78.90;;;;;;5111293;27;20289;-38
2022/09/02 06:10:16;;;;;;;11.13;3.15;;;20.30;79.10;;;;;;5096175;27;20222;-38
2022/09/02 06:12:48;;;;;;;10.18;3.22;;;20.30;79.20;;;;;;5129476;27;20200;-39
2022/09/02 06:15:20;;;;;;;6.40;3.05;;;20.30;79.10;;;;;;5120674;27;20256;-39
2022/09/02 06:17:58;;;;;;;14.23;3.00;;;20.30;78.90;;;;;;5118644;27;20340;-39
2022/09/02 06:20:27;;;;;;;8.00;3.20;;;20.40;79.10;;;;;;5125620;27;20328;-38
2022/09/02 06:23:00;;;;;;;4.97;2.72;;;20.40;79.10;;;;;;5106378;27;20210;-38
2022/09/02 06:25:29;;;;;;;12.00;3.22;;;20.40;79.40;;;;;;5105582;27;20310;-37
2022/09/02 06:27:59;;;;;;;10.32;3.13;;;20.40;79.30;;;;;;5124808;27;20214;-36
2022/09/02 06:30:41;;;;;;;11.07;3.28;;;20.40;79.40;;;;;;5090224;28;20259;-36
2022/09/02 06:33:15;;;;;;;9.75;3.63;;;20.50;79.90;;;;;;5132423;27;20277;-35
2022/09/02 06:35:45;;;;;;;7.18;3.13;;;20.50;80.10;;;;;;5131997;27;20992;-37
2022/09/02 06:38:13;;;;;;;7.70;3.47;;;20.50;80.30;;;;;;5148799;27;20554;-36
2022/09/02 06:40:49;;;;;;;8.65;3.38;;;20.50;80.40;;;;;;5126010;27;20789;-36
2022/09/02 06:43:16;;;;;;;10.15;3.20;;;20.50;80.70;;;;;;5122252;27;20288;-37
2022/09/02 06:45:44;;;;;;;5.40;2.85;;;20.60;80.70;;;;;;5127352;27;20218;-34
2022/09/02 06:48:14;;;;;;;6.35;3.30;;;20.60;80.90;;;;;;5112572;27;20727;-35
2022/09/02 06:50:45;;;;;;;4.75;3.03;;;20.60;80.90;;;;;;5128434;27;20209;-35
2022/09/02 06:53:16;;;;;;;7.78;2.90;;;20.70;81.10;;;;;;5121206;27;20742;-35
2022/09/02 06:55:46;;;;;;;8.63;3.00;;;20.70;81.10;;;;;;5099592;27;20198;-38
2022/09/02 06:58:18;;;;;;;6.22;3.15;;;20.80;81.20;;;;;;5108358;28;20238;-37
2022/09/02 07:00:46;;;;;;;6.47;3.30;;;20.80;81.30;;;;;;5109129;27;20581;-37
2022/09/02 07:06:09;;;;;;;5.38;2.78;;;20.90;81.10;;;;;;5129514;27;20274;-39
2022/09/02 07:08:41;;;;;;;5.35;2.95;;;21.00;81.10;;;;;;5114700;27;20223;-38
2022/09/02 07:11:18;;;;;;;8.10;3.08;;;21.00;81.20;;;;;;5125896;27;20197;-36
2022/09/02 07:13:49;;;;;;;6.30;3.00;;;21.10;81.60;;;;;;5116014;27;20223;-37
2022/09/02 07:16:17;;;;;;;4.03;2.60;;;21.20;81.20;;;;;;5119238;27;20209;-37
2022/09/02 07:18:54;;;;;;;4.97;2.38;;;21.20;81.10;;;;;;5113417;27;20303;-37
2022/09/02 07:21:23;;;;;;;5.90;2.50;;;21.30;81.10;;;;;;5118444;27;20556;-38
2022/09/02 07:23:53;;;;;;;5.22;2.50;;;21.30;81.10;;;;;;5114530;27;20249;-41
2022/09/02 07:26:21;;;;;;;5.90;2.58;;;21.40;81.40;;;;;;5112029;27;20216;-39
2022/09/02 07:28:48;;;;;;;5.65;2.50;;;21.50;81.50;;;;;;5119610;27;20254;-38
2022/09/02 07:31:19;;;;;;;5.22;2.30;;;21.50;82.10;;;;;;5108458;27;20234;-37
2022/09/02 07:33:46;;;;;;;4.88;2.40;;;21.60;81.50;;;;;;5116253;27;20205;-38
2022/09/02 07:36:20;;;;;;;2.30;2.05;;;21.60;81.40;;;;;;5127165;27;20210;-38
2022/09/02 07:38:50;;;;;;;2.67;2.15;;;21.70;81.60;;;;;;5122952;27;20194;-39
2022/09/02 07:41:18;;;;;;;4.55;2.60;;;21.70;81.60;;;;;;5109737;28;20246;-38
2022/09/02 07:43:48;;;;;;;4.18;2.45;;;21.80;81.50;;;;;;5108090;27;20622;-38
2022/09/02 07:46:25;;;;;;;3.50;2.40;;;21.90;81.60;;;;;;5107354;28;20271;-37
2022/09/02 07:48:55;;;;;;;7.05;2.38;;;21.90;81.60;;;;;;5125043;27;20193;-37
2022/09/02 07:51:23;;;;;;;2.92;2.42;;;22.00;81.70;;;;;;5109692;28;20214;-37
2022/09/02 07:53:57;;;;;;;2.50;2.30;;;22.10;81.80;;;;;;5110570;27;20665;-38
2022/09/02 07:56:27;;;;;;;4.40;2.28;;;22.10;81.80;;;;;;5108778;27;20260;-38
2022/09/02 07:58:59;;;;;;;3.15;2.20;;;22.20;82.00;;;;;;5107400;28;20234;-38
2022/09/02 08:01:30;;;;;;;3.33;2.50;;;22.20;81.90;;;;;;5103609;28;20203;-37
2022/09/02 08:03:58;;;;;;;3.88;2.67;;;22.30;82.00;;;;;;5123037;27;20214;-38
2022/09/02 08:06:36;;;;;;;3.95;2.38;;;22.30;81.90;;;;;;5076344;28;20737;-38
2022/09/02 08:09:09;;;;;;;3.97;2.30;;;22.40;82.00;;;;;;5126018;28;20807;-37
2022/09/02 08:11:45;;;;;;;2.35;2.15;;;22.50;82.20;;;;;;5127351;28;20460;-39
2022/09/02 08:14:23;;;;;;;5.63;2.40;;;22.60;82.40;;;;;;5111755;27;20285;-39
2022/09/02 08:16:55;;;;;;;5.53;2.50;;;22.60;82.40;;;;;;5112799;28;20616;-39
2022/09/02 08:19:26;;;;;;;4.65;2.58;;;22.70;82.50;;;;;;5110455;28;20202;-39
2022/09/02 08:22:07;;;;;;;2.58;2.30;;;22.70;82.70;;;;;;5123081;27;20292;-39
2022/09/02 08:24:38;;;;;;;4.03;3.40;;;22.70;82.80;;;;;;5124032;27;20201;-39
2022/09/02 08:27:05;;;;;;;3.33;2.75;;;22.80;82.80;;;;;;5131108;27;20639;-39
2022/09/02 08:29:34;;;;;;;3.20;2.47;;;22.90;82.80;;;;;;5113078;27;20204;-39
2022/09/02 08:32:01;;;;;;;4.57;2.50;;;23.00;83.00;;;;;;5110556;27;20194;-39
2022/09/02 08:34:31;;;;;;;4.93;2.10;;;23.10;83.00;;;;;;5130537;27;20201;-34
2022/09/02 08:37:06;;;;;;;6.95;2.63;;;23.20;83.10;;;;;;5113076;27;20304;-40
2022/09/02 08:39:35;;;;;;;6.78;2.80;;;23.20;82.90;;;;;;5106132;27;20671;-40
2022/09/02 08:42:21;;;;;;;4.35;2.60;;;23.30;83.10;;;;;;5096887;27;20622;-40
2022/09/02 08:44:54;;;;;;;7.20;2.90;;;23.30;83.10;;;;;;5113180;27;20223;-40
2022/09/02 08:47:28;;;;;;;5.10;2.50;;;23.40;83.00;;;;;;5148307;27;20225;-40
2022/09/02 08:50:02;;;;;;;3.17;2.40;;;23.50;83.30;;;;;;5147360;27;20212;-40
2022/09/02 08:53:09;;;;;;;2.58;2.25;;;23.50;83.30;;;;;;5129605;27;20281;-40
2022/09/02 08:55:52;;;;;;;5.13;2.70;;;23.60;83.50;;;;;;5025634;28;20838;-40
2022/09/02 08:58:27;;;;;;;2.88;2.40;;;23.60;83.50;;;;;;5103941;27;20316;-39
2022/09/02 09:01:19;;;;;;;4.28;2.47;;;23.70;83.60;;;;;;5119364;27;20585;-35
2022/09/02 09:04:04;;;;;;;9.57;3.05;;;23.70;83.60;;;;;;5127351;27;20217;-35
2022/09/02 09:07:00;;;;;;;6.47;3.00;;;23.80;83.70;;;;;;5134129;27;20707;-35
2022/09/02 09:09:53;;;;;;;9.52;2.78;;;23.90;83.90;;;;;;5128571;27;20668;-35
2022/09/02 09:12:26;;;;;;;7.70;3.00;;;24.00;84.00;;;;;;5113676;27;20197;-35
2022/09/02 09:15:28;;;;;;;16.38;3.60;;;24.00;84.00;;;;;;5120040;27;20293;-35
2022/09/02 09:17:58;;;;;;;14.07;3.78;;;24.10;84.00;;;;;;5119056;27;20205;-35
2022/09/02 09:20:37;;;;;;;8.90;3.10;;;24.10;84.00;;;;;;5097073;27;20215;-40
2022/09/02 09:23:20;;;;;;;5.30;2.58;;;24.10;83.90;;;;;;5118332;27;20206;-43
2022/09/02 09:25:56;;;;;;;6.40;2.60;;;24.20;84.00;;;;;;5092107;27;20217;-50
2022/09/02 09:28:27;;;;;;;5.82;2.38;;;24.30;83.90;;;;;;5117202;27;20201;-50
2022/09/02 09:30:58;;;;;;;6.22;2.30;;;24.30;84.10;;;;;;5118714;27;20240;-45
2022/09/02 09:33:25;;;;;;;4.72;2.70;;;24.30;84.20;;;;;;5098106;27;20198;-48
2022/09/02 09:35:54;;;;;;;5.97;2.20;;;24.40;84.00;;;;;;5126681;27;20221;-48
2022/09/02 09:38:30;;;;;;;3.58;2.03;;;24.40;84.00;;;;;;5121816;27;20782;-48
2022/09/02 09:41:10;;;;;;;4.13;2.20;;;24.50;84.20;;;;;;5126980;27;20765;-48
2022/09/02 09:43:37;;;;;;;7.18;2.03;;;24.50;84.10;;;;;;5120364;27;20237;-48
2022/09/02 09:46:26;;;;;;;4.78;1.90;;;24.60;84.00;;;;;;5125459;27;20708;-48
2022/09/02 09:48:56;;;;;;;2.90;1.90;;;24.60;83.90;;;;;;5092779;27;20284;-46
2022/09/02 09:51:23;;;;;;;60.63;7.43;;;24.70;84.00;;;;;;5097497;28;20297;-48
2022/09/02 09:53:51;;;;;;;50.13;6.45;;;24.70;83.80;;;;;;5118008;27;20206;-46
2022/09/02 09:56:28;;;;;;;38.45;5.82;;;24.70;83.90;;;;;;5097847;27;20214;-48
2022/09/02 09:58:55;;;;;;;5.00;2.53;;;24.80;83.40;;;;;;5119527;27;20431;-48
2022/09/02 10:01:31;;;;;;;3.60;1.63;;;24.80;83.60;;;;;;5104318;27;20672;-50
2022/09/02 10:04:11;;;;;;;4.90;1.58;;;24.90;83.70;;;;;;5114870;27;20302;-50
2022/09/02 10:07:01;;;;;;;2.70;1.60;;;25.00;82.90;;;;;;5116235;27;20218;-43
2022/09/02 10:09:32;;;;;;;5.00;1.70;;;25.00;83.00;;;;;;5120808;27;20637;-42
2022/09/02 10:12:15;;;;;;;5.90;1.92;;;25.00;82.50;;;;;;5129222;27;20580;-41
2022/09/02 10:14:49;;;;;;;3.65;1.75;;;25.10;83.00;;;;;;5122041;27;20258;-51
2022/09/02 10:17:54;;;;;;;5.55;1.73;;;25.20;83.10;;;;;;5108134;27;20205;-50
2022/09/02 10:20:36;;;;;;;2.92;1.75;;;25.30;83.30;;;;;;5112860;27;20332;-52
2022/09/02 10:23:34;;;;;;;2.22;1.50;;;25.30;83.40;;;;;;5116296;27;20216;-49
2022/09/02 10:26:30;;;;;;;3.83;1.92;;;25.30;82.60;;;;;;5115369;27;20225;-49
2022/09/02 10:29:32;;;;;;;4.18;1.73;;;25.40;82.20;;;;;;5114092;27;20202;-51
2022/09/02 10:32:25;;;;;;;1.30;1.20;;;25.40;83.00;;;;;;5124676;27;20652;-51
2022/09/02 10:35:14;;;;;;;2.15;1.20;;;25.50;82.80;;;;;;5102699;27;20209;-41
2022/09/02 10:37:47;;;;;;;6.25;1.70;;;25.50;82.70;;;;;;5122827;27;20218;-41
2022/09/02 10:40:24;;;;;;;3.97;1.77;;;25.50;82.80;;;;;;5108613;27;20759;-40
2022/09/02 10:43:04;;;;;;;4.13;1.50;;;25.60;82.50;;;;;;5111607;27;20254;-40
2022/09/02 10:45:57;;;;;;;3.97;1.60;;;25.60;82.50;;;;;;5121023;27;20730;-40
2022/09/02 10:48:36;;;;;;;4.88;1.40;;;25.70;81.30;;;;;;5102127;27;20426;-40
2022/09/02 10:51:38;;;;;;;2.08;1.58;;;25.70;82.00;;;;;;5135310;27;20702;-40
2022/09/02 10:54:34;;;;;;;1.95;1.45;;;25.70;80.30;;;;;;5121002;27;20621;-40
2022/09/02 10:57:27;;;;;;;3.17;1.58;;;25.70;81.80;;;;;;5105507;27;20797;-39
2022/09/02 11:00:08;;;;;;;2.22;1.45;;;25.80;81.90;;;;;;5122777;27;20281;-51
2022/09/02 11:02:54;;;;;;;3.00;1.83;;;25.80;81.90;;;;;;5119863;27;20683;-51
2022/09/02 11:05:35;;;;;;;2.10;1.65;;;25.80;81.90;;;;;;5124566;27;20214;-53
2022/09/02 11:08:13;;;;;;;12.15;2.17;;;25.80;81.40;;;;;;5114490;27;20711;-54
2022/09/02 11:10:52;;;;;;;4.82;1.52;;;25.90;80.30;;;;;;5094931;27;20236;-53
2022/09/02 11:13:31;;;;;;;2.53;1.65;;;26.00;81.00;;;;;;5118841;27;20233;-53
2022/09/02 11:16:06;;;;;;;5.43;1.52;;;26.00;81.20;;;;;;5097851;27;20676;-51
2022/09/02 11:19:09;;;;;;;1.73;1.42;;;26.00;80.80;;;;;;5107762;27;20201;-45
2022/09/02 11:21:58;;;;;;;1.45;1.25;;;26.10;80.70;;;;;;5116607;27;20201;-48
2022/09/02 11:24:46;;;;;;;7.10;1.73;;;26.10;80.60;;;;;;5121479;27;20313;-48
2022/09/02 11:27:19;;;;;;;1.98;1.52;;;26.10;80.50;;;;;;5112093;27;20693;-50
2022/09/02 11:30:19;;;;;;;1.95;1.38;;;26.20;80.10;;;;;;5119144;27;20211;-48
2022/09/02 11:32:55;;;;;;;6.47;1.63;;;26.20;80.00;;;;;;5111124;27;20554;-43
2022/09/02 11:35:37;;;;;;;7.38;1.80;;;26.30;79.80;;;;;;5116688;27;20197;-44
2022/09/02 11:38:16;;;;;;;3.53;1.45;;;26.30;78.80;;;;;;5097654;27;20198;-48
2022/09/02 11:40:52;;;;;;;2.15;1.30;;;26.30;79.80;;;;;;5109740;27;20212;-49
2022/09/02 11:43:47;;;;;;;4.53;1.48;;;26.30;80.00;;;;;;5112498;27;20324;-45
2022/09/02 11:46:37;;;;;;;3.63;1.35;;;26.40;79.70;;;;;;5124482;27;20209;-51
2022/09/02 11:49:26;;;;;;;3.42;1.40;;;26.50;76.90;;;;;;5100516;28;20627;-48
2022/09/02 11:52:12;;;;;;;2.67;1.10;;;26.50;78.90;;;;;;5118208;27;20246;-52
2022/09/02 11:54:45;;;;;;;3.20;1.48;;;26.50;79.10;;;;;;5109510;27;20210;-48
2022/09/02 11:57:22;;;;;;;1.65;1.40;;;26.50;78.50;;;;;;5118497;27;20213;-49
2022/09/02 11:59:50;;;;;;;1.92;1.45;;;26.60;78.60;;;;;;5115776;27;20281;-47
2022/09/02 12:02:39;;;;;;;2.97;1.20;;;26.60;78.70;;;;;;5101288;28;21091;-44
2022/09/02 12:05:28;;;;;;;2.78;1.50;;;26.60;79.30;;;;;;5102366;27;20340;-51
2022/09/02 12:08:11;;;;;;;1.40;1.30;;;26.70;73.80;;;;;;5126164;28;20247;-53
2022/09/02 12:10:42;;;;;;;3.65;1.30;;;26.80;78.20;;;;;;5108815;27;20713;-49
2022/09/02 12:13:47;;;;;;;2.55;1.10;;;26.80;75.30;;;;;;5117496;27;20189;-51
2022/09/02 12:16:24;;;;;;;2.08;1.35;;;26.80;78.00;;;;;;5116260;27;20198;-54
2022/09/02 12:18:55;;;;;;;3.35;1.30;;;26.80;78.10;;;;;;5120191;28;20220;-52
2022/09/02 12:21:27;;;;;;;2.33;1.25;;;26.80;78.20;;;;;;5112720;27;20719;-49
2022/09/02 12:23:54;;;;;;;1.83;1.40;;;26.90;77.10;;;;;;5121287;27;20209;-47
2022/09/02 12:26:29;;;;;;;4.03;1.10;;;26.90;77.50;;;;;;5117683;27;20722;-47
2022/09/02 12:29:23;;;;;;;5.53;1.23;;;27.00;77.40;;;;;;5088261;27;20197;-45
2022/09/02 12:31:52;;;;;;;4.47;1.50;;;27.00;78.30;;;;;;5102982;27;20206;-47
2022/09/02 12:34:19;;;;;;;5.90;1.33;;;27.00;77.20;;;;;;5118190;28;20301;-48
2022/09/02 12:36:56;;;;;;;3.72;1.50;;;27.10;76.10;;;;;;5114712;28;20263;-47
2022/09/02 12:39:24;;;;;;;4.05;1.52;;;27.10;77.30;;;;;;5106481;28;20660;-47
2022/09/02 12:42:11;;;;;;;3.28;1.20;;;27.10;77.10;;;;;;5105839;28;20226;-40
2022/09/02 12:45:03;;;;;;;3.25;1.30;;;27.20;77.40;;;;;;5103644;27;20200;-47
2022/09/02 12:47:52;;;;;;;3.55;1.20;;;27.30;77.10;;;;;;5138794;27;20229;-47
2022/09/02 12:50:25;;;;;;;1.98;1.38;;;27.30;77.70;;;;;;5118156;27;20316;-48
2022/09/02 12:53:33;;;;;;;1.92;1.20;;;27.40;77.50;;;;;;5135515;27;20234;-48
2022/09/02 12:56:20;;;;;;;1.95;1.20;;;27.40;77.20;;;;;;5106427;28;20517;-48
2022/09/02 12:58:52;;;;;;;7.95;1.55;;;27.60;75.50;;;;;;5105638;28;20238;-48
2022/09/02 13:01:46;;;;;;;1.90;1.38;;;27.60;76.60;;;;;;5144175;27;20257;-48
2022/09/02 13:04:42;;;;;;;3.13;1.30;;;27.70;77.30;;;;;;5115320;28;20197;-48
2022/09/02 13:07:28;;;;;;;1.75;1.00;;;27.70;74.50;;;;;;5083264;27;20293;-47
2022/09/02 13:10:59;;;;;;;1.15;1.05;;;27.80;74.40;;;;;;5123178;27;20277;-46
2022/09/02 13:13:44;;;;;;;4.80;1.55;;;27.90;76.00;;;;;;5036496;28;20196;-47
2022/09/02 13:16:35;;;;;;;2.28;1.00;;;27.90;73.80;;;;;;5118109;27;20212;-47
2022/09/02 13:19:24;;;;;;;5.55;1.35;;;28.00;76.10;;;;;;5109336;27;20769;-46
2022/09/02 13:22:42;;;;;;;1.52;1.30;;;28.10;75.10;;;;;;5123930;27;20201;-46
2022/09/02 13:25:29;;;;;;;2.55;1.17;;;28.10;75.20;;;;;;5043790;27;20228;-48
2022/09/02 13:27:59;;;;;;;4.95;1.35;;;28.20;75.00;;;;;;5096564;28;20229;-47